Time;durP1;ratioP1;P1;durP2;ratioP2;P2;SDS_P1;SDS_P2;PMS_P1;PMS_P2;Temp;Humidity;BMP_temperature;BMP_pressure;BME280_temperature;BME280_humidity;BME280_pressure;Samples;Min_cycle;Max_cycle;Signal;HPM_P1;HPM_P2
2022/07/16 00:02:41;;;;;;;7.65;3.15;;;;;;;;;;5048063;28;20056;-73
2022/07/16 00:05:07;;;;;;;8.95;2.95;;;;;;;;;;5051476;28;20033;-73
2022/07/16 00:07:33;;;;;;;7.55;2.95;;;;;;;;;;5050270;28;20536;-73
2022/07/16 00:09:59;;;;;;;6.50;3.85;;;;;;;;;;5046871;28;20120;-73
2022/07/16 00:12:26;;;;;;;10.15;4.00;;;;;;;;;;5050123;28;20033;-73
2022/07/16 00:14:52;;;;;;;13.40;4.50;;;;;;;;;;5040796;28;20057;-73
2022/07/16 00:17:18;;;;;;;10.27;3.47;;;;;;;;;;5048058;28;20025;-73
2022/07/16 00:19:44;;;;;;;6.88;3.50;;;;;;;;;;5049825;28;20033;-73
2022/07/16 00:22:10;;;;;;;8.23;3.08;;;;;;;;;;5049116;28;20031;-73
2022/07/16 00:24:36;;;;;;;10.20;3.65;;;;;;;;;;5046798;28;20057;-73
2022/07/16 00:27:02;;;;;;;5.05;2.80;;;;;;;;;;5046775;28;20033;-73
2022/07/16 00:29:28;;;;;;;6.07;2.80;;;;;;;;;;5049454;28;20488;-73
2022/07/16 00:31:54;;;;;;;12.75;3.20;;;;;;;;;;5041517;28;20037;-73
2022/07/16 00:34:21;;;;;;;3.60;1.95;;;;;;;;;;5065197;28;20086;-73
2022/07/16 00:36:47;;;;;;;5.30;2.13;;;;;;;;;;5047837;28;20021;-73
2022/07/16 00:39:16;;;;;;;6.20;1.92;;;17.30;99.90;;;;;;5047505;28;20037;-73
2022/07/16 00:41:43;;;;;;;6.80;2.10;;;17.40;99.90;;;;;;5049464;28;20469;-73
2022/07/16 00:44:12;;;;;;;4.22;1.90;;;;;;;;;;5042156;28;20120;-73
2022/07/16 00:46:39;;;;;;;2.70;1.65;;;;;;;;;;5057458;28;20033;-73
2022/07/16 00:49:05;;;;;;;4.53;2.03;;;;;;;;;;5045306;28;20495;-73
2022/07/16 00:51:31;;;;;;;4.18;2.22;;;;;;;;;;5045582;28;20473;-73
2022/07/16 00:53:58;;;;;;;4.72;2.33;;;;;;;;;;5042244;28;20051;-72
2022/07/16 00:56:24;;;;;;;5.97;2.55;;;;;;;;;;5049336;28;20033;-72
2022/07/16 00:58:51;;;;;;;7.93;2.30;;;;;;;;;;5049097;28;20033;-72
2022/07/16 01:01:17;;;;;;;7.68;2.88;;;16.90;99.90;;;;;;5046214;28;20033;-72
2022/07/16 01:03:44;;;;;;;4.65;1.83;;;;;;;;;;5047802;28;20033;-72
2022/07/16 01:06:11;;;;;;;4.13;1.73;;;;;;;;;;5048944;28;20469;-72
2022/07/16 01:08:40;;;;;;;4.10;1.85;;;16.60;99.90;;;;;;5047671;28;20021;-72
2022/07/16 01:11:07;;;;;;;4.85;1.77;;;;;;;;;;5044880;28;20433;-72
2022/07/16 01:13:34;;;;;;;5.55;1.63;;;16.60;99.90;;;;;;5046895;28;20037;-72
2022/07/16 01:16:00;;;;;;;2.45;1.20;;;;;;;;;;5047440;28;20088;-72
2022/07/16 01:18:26;;;;;;;4.47;1.00;;;;;;;;;;5048318;28;20033;-72
2022/07/16 01:20:52;;;;;;;4.75;1.83;;;;;;;;;;5050070;28;20029;-73
2022/07/16 01:23:22;;;;;;;3.60;1.38;;;16.50;99.90;;;;;;5048304;28;20113;-73
2022/07/16 01:25:48;;;;;;;6.00;1.27;;;;;;;;;;5045499;28;20385;-72
2022/07/16 01:28:15;;;;;;;3.08;0.95;;;16.50;99.90;;;;;;5046860;28;20025;-72
2022/07/16 01:30:41;;;;;;;4.60;1.08;;;;;;;;;;5044041;28;20033;-73
2022/07/16 01:33:21;;;;;;;5.82;1.42;;;;;;;;;;5047467;28;20020;-73
2022/07/16 01:35:47;;;;;;;9.25;1.33;;;;;;;;;;5049335;28;20089;-73
2022/07/16 01:38:13;;;;;;;5.05;1.30;;;;;;;;;;5049758;28;20380;-73
2022/07/16 01:40:38;;;;;;;7.47;1.33;;;16.50;99.90;;;;;;5039018;28;20034;-73
2022/07/16 01:43:04;;;;;;;12.27;2.30;;;;;;;;;;5043984;28;20041;-73
2022/07/16 01:45:30;;;;;;;6.68;1.13;;;;;;;;;;5047961;28;20034;-73
2022/07/16 01:47:57;;;;;;;5.05;1.40;;;16.40;99.90;;;;;;5044651;28;20040;-73
2022/07/16 01:50:23;;;;;;;4.40;1.05;;;16.50;99.90;;;;;;5052868;28;20036;-73
2022/07/16 01:52:49;;;;;;;6.53;1.33;;;;;;;;;;5051098;28;20037;-73
2022/07/16 01:55:15;;;;;;;6.97;1.15;;;;;;;;;;5050636;28;20606;-73
2022/07/16 01:57:42;;;;;;;6.82;1.10;;;;;;;;;;5049030;28;20112;-73
2022/07/16 02:00:08;;;;;;;5.90;1.15;;;;;;;;;;5049931;28;20033;-73
2022/07/16 02:02:34;;;;;;;5.05;1.10;;;;;;;;;;5052247;28;20045;-73
2022/07/16 02:05:00;;;;;;;10.68;1.17;;;;;;;;;;5052753;28;20538;-72
2022/07/16 02:07:26;;;;;;;4.00;1.75;;;;;;;;;;5050080;28;20107;-73
2022/07/16 02:09:52;;;;;;;3.10;0.80;;;;;;;;;;5042578;28;20031;-73
2022/07/16 02:12:18;;;;;;;9.65;1.17;;;;;;;;;;5065080;28;20041;-72
2022/07/16 02:14:44;;;;;;;5.25;0.80;;;;;;;;;;5050865;28;20447;-73
2022/07/16 02:17:10;;;;;;;6.47;1.27;;;;;;;;;;5047577;28;20025;-74
2022/07/16 02:19:36;;;;;;;7.80;1.38;;;;;;;;;;5053456;28;20029;-73
2022/07/16 02:22:03;;;;;;;4.50;0.75;;;;;;;;;;5051811;28;20495;-72
2022/07/16 02:24:29;;;;;;;5.32;1.38;;;;;;;;;;5051521;28;20045;-73
2022/07/16 02:26:55;;;;;;;5.53;1.40;;;;;;;;;;5050159;28;20036;-73
2022/07/16 02:29:21;;;;;;;5.10;1.20;;;;;;;;;;5051271;28;20044;-73
2022/07/16 02:31:47;;;;;;;4.55;1.08;;;;;;;;;;5050044;28;20043;-73
2022/07/16 02:34:13;;;;;;;8.65;1.10;;;;;;;;;;5051399;28;20396;-73
2022/07/16 02:36:39;;;;;;;7.28;1.98;;;;;;;;;;5049748;28;20033;-72
2022/07/16 02:39:05;;;;;;;7.07;1.40;;;;;;;;;;5048749;28;20033;-73
2022/07/16 02:41:31;;;;;;;5.25;1.20;;;;;;;;;;5051920;28;20124;-74
2022/07/16 02:43:57;;;;;;;5.35;1.60;;;;;;;;;;5047648;28;20473;-73
2022/07/16 02:46:23;;;;;;;4.13;1.13;;;;;;;;;;5043061;28;20036;-73
2022/07/16 02:48:49;;;;;;;5.55;0.98;;;;;;;;;;5045801;28;20029;-73
2022/07/16 02:51:15;;;;;;;7.85;1.40;;;;;;;;;;5052609;28;20061;-73
2022/07/16 02:53:41;;;;;;;4.55;1.02;;;;;;;;;;5050720;28;20095;-73
2022/07/16 02:56:07;;;;;;;4.30;1.08;;;;;;;;;;5050662;28;20025;-73
2022/07/16 02:58:33;;;;;;;13.32;2.92;;;;;;;;;;5050364;28;20068;-73
2022/07/16 03:00:59;;;;;;;6.57;1.25;;;;;;;;;;5051775;28;20086;-73
2022/07/16 03:03:25;;;;;;;4.40;1.52;;;;;;;;;;5048690;28;20481;-73
2022/07/16 03:05:51;;;;;;;5.28;1.60;;;;;;;;;;5038753;28;20039;-73
2022/07/16 03:08:17;;;;;;;5.85;1.40;;;;;;;;;;5051105;28;20037;-73
2022/07/16 03:10:43;;;;;;;10.35;1.60;;;;;;;;;;5048678;28;20033;-73
2022/07/16 03:13:09;;;;;;;10.07;1.60;;;;;;;;;;5051554;28;20469;-73
2022/07/16 03:15:35;;;;;;;10.48;1.73;;;;;;;;;;5046192;28;20064;-73
2022/07/16 03:18:01;;;;;;;5.30;1.75;;;;;;;;;;5046804;28;20543;-73
2022/07/16 03:20:27;;;;;;;11.85;1.58;;;;;;;;;;5044148;28;20044;-73
2022/07/16 03:22:53;;;;;;;4.32;1.40;;;;;;;;;;5040988;28;20033;-74
2022/07/16 03:25:20;;;;;;;8.75;1.95;;;;;;;;;;5037028;28;20049;-74
2022/07/16 03:27:46;;;;;;;4.97;1.70;;;;;;;;;;5050425;28;20104;-75
2022/07/16 03:30:13;;;;;;;6.82;1.30;;;;;;;;;;5048849;28;20075;-74
2022/07/16 03:32:39;;;;;;;6.85;1.50;;;;;;;;;;5048730;28;20032;-74
2022/07/16 03:35:09;;;;;;;3.35;1.17;;;;;;;;;;5046579;28;20069;-74
2022/07/16 03:38:57;;;;;;;8.00;1.55;;;;;;;;;;5047754;28;20025;-73
2022/07/16 03:40:21;;;;;;;8.07;1.77;;;;;;;;;;5041750;28;20112;-73
2022/07/16 03:42:47;;;;;;;7.35;3.00;;;;;;;;;;5046941;28;20531;-73
2022/07/16 03:45:13;;;;;;;6.88;1.73;;;;;;;;;;5045950;28;20033;-72
2022/07/16 03:47:39;;;;;;;8.27;1.15;;;;;;;;;;5036303;28;20401;-71
2022/07/16 03:50:05;;;;;;;6.57;1.35;;;;;;;;;;5046719;28;20159;-73
2022/07/16 03:52:31;;;;;;;7.43;1.58;;;;;;;;;;5046367;28;20477;-73
2022/07/16 03:54:57;;;;;;;4.13;1.83;;;;;;;;;;5035893;28;20044;-73
2022/07/16 03:57:23;;;;;;;8.00;1.52;;;;;;;;;;5047968;28;20087;-73
2022/07/16 03:59:49;;;;;;;5.82;1.30;;;;;;;;;;5029907;28;20021;-74
2022/07/16 04:02:15;;;;;;;4.90;1.33;;;;;;;;;;5045523;28;20029;-74
2022/07/16 04:04:41;;;;;;;9.07;1.45;;;;;;;;;;5050462;28;20469;-73
2022/07/16 04:07:07;;;;;;;4.95;1.35;;;;;;;;;;5046050;28;20108;-74
2022/07/16 04:09:33;;;;;;;7.53;1.55;;;;;;;;;;5044128;28;20112;-73
2022/07/16 04:11:59;;;;;;;7.05;1.95;;;;;;;;;;5042825;28;20151;-72
2022/07/16 04:14:25;;;;;;;8.50;3.95;;;;;;;;;;5049087;28;20041;-74
2022/07/16 04:16:51;;;;;;;9.43;2.10;;;;;;;;;;5043050;28;20025;-74
2022/07/16 04:19:17;;;;;;;5.35;1.40;;;;;;;;;;5048792;28;20104;-72
2022/07/16 04:21:43;;;;;;;9.75;2.65;;;;;;;;;;5046096;28;20031;-73
2022/07/16 04:24:09;;;;;;;5.53;1.15;;;;;;;;;;5040707;28;20579;-74
2022/07/16 04:26:35;;;;;;;10.05;1.30;;;;;;;;;;5049233;28;20108;-73
2022/07/16 04:29:01;;;;;;;8.35;1.30;;;;;;;;;;5047069;28;20055;-73
2022/07/16 04:31:27;;;;;;;6.35;1.10;;;;;;;;;;5047696;28;20029;-73
2022/07/16 04:33:53;;;;;;;6.63;1.30;;;;;;;;;;5041066;28;20071;-73
2022/07/16 04:36:19;;;;;;;13.43;2.15;;;;;;;;;;5037771;28;20668;-72
2022/07/16 04:38:45;;;;;;;9.10;1.23;;;;;;;;;;5041199;28;20029;-72
2022/07/16 04:41:11;;;;;;;8.55;1.92;;;;;;;;;;5050026;28;20391;-73
2022/07/16 04:43:37;;;;;;;7.90;1.00;;;;;;;;;;5052257;28;20804;-73
2022/07/16 04:46:03;;;;;;;7.25;1.20;;;;;;;;;;5042779;28;20027;-73
2022/07/16 04:48:30;;;;;;;6.32;1.23;;;;;;;;;;5047396;28;20033;-73
2022/07/16 04:50:56;;;;;;;11.00;2.33;;;;;;;;;;5047359;28;20399;-73
2022/07/16 04:53:22;;;;;;;11.82;1.10;;;;;;;;;;5049772;28;20041;-73
2022/07/16 04:55:48;;;;;;;6.55;1.13;;;;;;;;;;5046680;28;20539;-72
2022/07/16 04:58:14;;;;;;;11.98;1.20;;;;;;;;;;5044992;28;20029;-72
2022/07/16 05:00:40;;;;;;;8.18;1.67;;;;;;;;;;5036234;28;20078;-74
2022/07/16 05:03:07;;;;;;;7.15;1.38;;;;;;;;;;5048734;28;20148;-74
2022/07/16 05:05:36;;;;;;;7.47;1.15;;;;;;;;;;5046405;28;20040;-74
2022/07/16 05:08:03;;;;;;;10.13;2.30;;;;;;;;;;5047832;28;20082;-73
2022/07/16 05:10:29;;;;;;;10.40;2.90;;;;;;;;;;5052310;28;20036;-73
2022/07/16 05:12:55;;;;;;;9.77;2.35;;;;;;;;;;5051468;28;20056;-74
2022/07/16 05:15:22;;;;;;;7.75;1.48;;;;;;;;;;5046940;28;20758;-73
2022/07/16 05:17:48;;;;;;;8.63;1.73;;;;;;;;;;5052209;28;20506;-73
2022/07/16 05:20:15;;;;;;;9.35;0.98;;;;;;;;;;5067610;28;20151;-72
2022/07/16 05:22:41;;;;;;;4.00;0.98;;;;;;;;;;5051652;28;20032;-72
2022/07/16 05:25:08;;;;;;;10.63;1.92;;;15.50;99.90;;;;;;5054117;28;20187;-74
2022/07/16 05:27:34;;;;;;;9.82;1.40;;;;;;;;;;5054215;28;20128;-74
2022/07/16 05:30:01;;;;;;;7.68;1.08;;;;;;;;;;5052280;28;20075;-73
2022/07/16 05:32:27;;;;;;;10.70;1.15;;;;;;;;;;5046961;28;20033;-73
2022/07/16 05:34:53;;;;;;;8.30;1.55;;;;;;;;;;5037212;28;20053;-73
2022/07/16 05:37:19;;;;;;;4.75;1.60;;;;;;;;;;5045358;28;20068;-73
2022/07/16 05:39:45;;;;;;;7.38;1.23;;;;;;;;;;5047658;28;20060;-73
2022/07/16 05:42:11;;;;;;;12.23;1.10;;;;;;;;;;5053853;28;20465;-73
2022/07/16 05:44:37;;;;;;;5.72;0.95;;;;;;;;;;5053632;28;20036;-73
2022/07/16 05:47:04;;;;;;;4.88;1.20;;;;;;;;;;5053420;28;20400;-73
2022/07/16 05:49:30;;;;;;;6.43;1.00;;;;;;;;;;5039738;28;20048;-73
2022/07/16 05:51:56;;;;;;;7.20;1.05;;;;;;;;;;5037874;28;20045;-73
2022/07/16 05:54:22;;;;;;;6.28;1.45;;;;;;;;;;5043275;28;20099;-73
2022/07/16 05:56:48;;;;;;;5.88;1.00;;;;;;;;;;5069613;28;20025;-72
2022/07/16 05:59:15;;;;;;;7.80;1.08;;;;;;;;;;5053735;28;20079;-72
2022/07/16 06:01:41;;;;;;;7.22;1.20;;;;;;;;;;5052818;28;20027;-73
2022/07/16 06:04:07;;;;;;;6.20;1.23;;;15.90;99.90;;;;;;5051263;28;20037;-73
2022/07/16 06:06:33;;;;;;;8.77;1.20;;;;;;;;;;5052384;28;20040;-73
2022/07/16 06:08:59;;;;;;;4.97;0.70;;;;;;;;;;5040306;28;20485;-73
2022/07/16 06:11:25;;;;;;;6.25;1.17;;;;;;;;;;5053121;28;20029;-73
2022/07/16 06:13:51;;;;;;;5.30;0.85;;;;;;;;;;5067448;28;20052;-74
2022/07/16 06:16:19;;;;;;;6.18;1.10;;;;;;;;;;5050681;28;20037;-74
2022/07/16 06:18:44;;;;;;;6.38;0.85;;;16.10;99.90;;;;;;5053484;28;20036;-73
2022/07/16 06:21:10;;;;;;;9.98;2.08;;;;;;;;;;5053341;28;20037;-73
2022/07/16 06:23:36;;;;;;;7.38;1.17;;;;;;;;;;5048644;28;20040;-73
2022/07/16 06:26:03;;;;;;;7.53;1.02;;;;;;;;;;5053051;28;20045;-74
2022/07/16 06:28:29;;;;;;;7.40;0.80;;;;;;;;;;5051776;28;20476;-73
2022/07/16 06:30:55;;;;;;;10.85;1.30;;;;;;;;;;5049299;28;20039;-74
2022/07/16 06:33:21;;;;;;;7.32;0.82;;;;;;;;;;5047439;28;20053;-77
2022/07/16 06:35:47;;;;;;;6.30;0.95;;;;;;;;;;5040059;28;20029;-74
2022/07/16 06:38:13;;;;;;;4.22;0.65;;;;;;;;;;5043613;28;20045;-74
2022/07/16 06:40:43;;;;;;;8.57;1.00;;;;;;;;;;5048847;28;20104;-72
2022/07/16 06:43:09;;;;;;;7.32;0.93;;;;;;;;;;5051072;28;20432;-74
2022/07/16 06:45:35;;;;;;;6.68;1.10;;;;;;;;;;5050870;28;20380;-74
2022/07/16 06:48:01;;;;;;;3.83;0.98;;;;;;;;;;5052121;28;20033;-74
2022/07/16 06:50:27;;;;;;;5.68;0.73;;;;;;;;;;5047023;28;20055;-74
2022/07/16 06:52:53;;;;;;;7.15;0.90;;;;;;;;;;5046170;28;20043;-75
2022/07/16 06:55:19;;;;;;;7.95;1.05;;;;;;;;;;5050504;28;20441;-75
2022/07/16 06:57:45;;;;;;;5.43;0.57;;;17.70;99.90;;;;;;5048541;28;21101;-74
2022/07/16 07:00:12;;;;;;;5.43;0.57;;;;;;;;;;5050384;28;20108;-73
2022/07/16 07:02:38;;;;;;;11.88;2.78;;;;;;;;;;5043149;28;20431;-73
2022/07/16 07:05:04;;;;;;;7.53;2.15;;;;;;;;;;5049207;28;20120;-73
2022/07/16 07:07:30;;;;;;;7.93;0.82;;;;;;;;;;5048621;28;20666;-74
2022/07/16 07:09:56;;;;;;;4.50;0.60;;;;;;;;;;5050163;28;20117;-74
2022/07/16 07:12:22;;;;;;;3.28;0.70;;;;;;;;;;5046941;28;20037;-75
2022/07/16 07:14:48;;;;;;;4.05;0.68;;;;;;;;;;5051574;28;20095;-75
2022/07/16 07:17:14;;;;;;;1.95;0.63;;;;;;;;;;5040015;28;20048;-75
2022/07/16 07:19:40;;;;;;;6.88;1.02;;;;;;;;;;5049361;28;20025;-74
2022/07/16 07:22:06;;;;;;;7.40;0.90;;;;;;;;;;5042955;28;20132;-73
2022/07/16 07:24:32;;;;;;;6.75;1.00;;;;;;;;;;5046280;28;21316;-76
2022/07/16 07:26:58;;;;;;;6.82;1.48;;;;;;;;;;5048391;28;20029;-73
2022/07/16 07:29:24;;;;;;;7.63;2.25;;;;;;;;;;5047817;28;20556;-74
2022/07/16 07:31:50;;;;;;;3.22;0.70;;;;;;;;;;5041373;28;20025;-73
2022/07/16 07:34:16;;;;;;;3.70;0.60;;;;;;;;;;5047161;28;20032;-73
2022/07/16 07:36:42;;;;;;;4.75;0.90;;;;;;;;;;5046884;28;20037;-73
2022/07/16 07:39:08;;;;;;;1.98;0.63;;;;;;;;;;5038780;28;20045;-74
2022/07/16 07:41:34;;;;;;;4.55;0.77;;;;;;;;;;5045345;28;20068;-72
2022/07/16 07:44:00;;;;;;;3.75;0.50;;;;;;;;;;5041534;28;20048;-74
2022/07/16 07:46:26;;;;;;;6.35;0.63;;;;;;;;;;5046112;28;20028;-74
2022/07/16 07:48:52;;;;;;;3.65;0.80;;;;;;;;;;5046500;28;20052;-71
2022/07/16 07:51:18;;;;;;;4.25;0.90;;;;;;;;;;5038890;28;20057;-70
2022/07/16 07:53:44;;;;;;;3.72;0.80;;;;;;;;;;5033345;28;20119;-73
2022/07/16 07:56:10;;;;;;;2.72;0.65;;;;;;;;;;5046257;28;20074;-73
2022/07/16 07:58:37;;;;;;;10.05;1.00;;;23.80;91.40;;;;;;5035775;28;20457;-73
2022/07/16 08:01:03;;;;;;;3.03;0.45;;;;;;;;;;5044037;28;20090;-73
2022/07/16 08:03:29;;;;;;;4.45;0.80;;;;;;;;;;5039430;28;20084;-73
2022/07/16 08:05:55;;;;;;;3.30;1.27;;;;;;;;;;5041542;28;20049;-73
2022/07/16 08:08:21;;;;;;;3.88;0.80;;;;;;;;;;5044487;28;20150;-72
2022/07/16 08:10:47;;;;;;;2.83;0.65;;;;;;;;;;5041281;28;20050;-72
2022/07/16 08:13:13;;;;;;;3.38;0.95;;;21.90;98.20;;;;;;5029040;28;20076;-72
2022/07/16 08:15:39;;;;;;;3.53;0.60;;;;;;;;;;5046170;28;20061;-72
2022/07/16 08:18:05;;;;;;;5.90;0.73;;;;;;;;;;5035881;28;20029;-72
2022/07/16 08:20:31;;;;;;;3.17;0.68;;;;;;;;;;5044229;28;20075;-72
2022/07/16 08:22:57;;;;;;;8.18;1.10;;;20.40;99.90;;;;;;5041598;28;20037;-71
2022/07/16 08:28:07;;;;;;;5.47;0.80;;;20.00;99.90;;;;;;5049237;28;20072;-71
2022/07/16 08:30:33;;;;;;;6.00;1.00;;;;;;;;;;5048731;28;20041;-71
2022/07/16 08:32:59;;;;;;;4.72;0.80;;;;;;;;;;5032706;28;20029;-73
2022/07/16 08:35:25;;;;;;;3.85;1.35;;;;;;;;;;5023206;28;20057;-74
2022/07/16 08:37:51;;;;;;;5.93;1.15;;;;;;;;;;5030626;28;20037;-80
2022/07/16 08:40:20;;;;;;;10.25;0.90;;;;;;;;;;5041116;28;20127;-73
2022/07/16 08:42:46;;;;;;;4.90;1.17;;;;;;;;;;5042696;28;20023;-72
2022/07/16 08:45:13;;;;;;;2.80;0.60;;;;;;;;;;5038919;28;20052;-73
2022/07/16 08:47:40;;;;;;;5.63;0.95;;;21.80;94.80;;;;;;5045439;28;20037;-72
2022/07/16 08:50:08;;;;;;;6.70;0.93;;;;;;;;;;5045312;28;20457;-72
2022/07/16 08:52:37;;;;;;;8.27;1.02;;;;;;;;;;5033314;28;20035;-73
2022/07/16 08:55:03;;;;;;;5.38;0.93;;;22.50;99.80;;;;;;5042541;28;20384;-72
2022/07/16 08:57:29;;;;;;;3.67;0.98;;;;;;;;;;5038834;28;20449;-73
2022/07/16 08:59:55;;;;;;;6.65;0.88;;;;;;;;;;5044183;28;20106;-73
2022/07/16 09:02:21;;;;;;;5.13;0.77;;;;;;;;;;5045912;28;20039;-73
2022/07/16 09:04:47;;;;;;;4.78;0.95;;;;;;;;;;5042214;28;20064;-73
2022/07/16 09:07:14;;;;;;;4.72;0.70;;;21.70;93.20;;;;;;5050436;28;20025;-72
2022/07/16 09:09:40;;;;;;;3.88;1.13;;;;;;;;;;5031165;28;20036;-72
2022/07/16 09:12:07;;;;;;;3.70;0.65;;;;;;;;;;5045716;28;20089;-72
2022/07/16 09:14:33;;;;;;;6.80;0.80;;;;;;;;;;5045716;28;20091;-73
2022/07/16 09:17:00;;;;;;;3.22;0.73;;;;;;;;;;5031997;28;20417;-72
2022/07/16 09:19:28;;;;;;;6.03;0.73;;;;;;;;;;5046183;28;20036;-73
2022/07/16 09:22:12;;;;;;;3.80;0.88;;;21.80;94.60;;;;;;5022574;28;20033;-72
2022/07/16 09:24:45;;;;;;;3.78;0.70;;;;;;;;;;5052114;28;20056;-73
2022/07/16 09:27:14;;;;;;;4.38;0.60;;;;;;;;;;5051365;28;20029;-73
2022/07/16 09:29:45;;;;;;;5.85;1.20;;;;;;;;;;5045909;28;20037;-73
2022/07/16 09:32:11;;;;;;;4.65;1.42;;;;;;;;;;5042322;28;20037;-76
2022/07/16 09:34:37;;;;;;;7.53;1.52;;;;;;;;;;5033667;28;20826;-73
2022/07/16 09:37:04;;;;;;;12.43;6.80;;;;;;;;;;5051053;28;20063;-73
2022/07/16 09:39:31;;;;;;;5.30;0.85;;;20.90;96.70;;;;;;5048333;28;20028;-73
2022/07/16 09:41:59;;;;;;;8.52;0.93;;;;;;;;;;5043511;28;20026;-75
2022/07/16 09:44:28;;;;;;;6.45;0.60;;;;;;;;;;5052219;28;20910;-72
2022/07/16 09:47:05;;;;;;;5.63;1.30;;;;;;;;;;5053584;28;20029;-72
2022/07/16 09:49:32;;;;;;;6.70;1.42;;;;;;;;;;5049117;28;20112;-71
2022/07/16 09:51:58;;;;;;;8.65;1.23;;;;;;;;;;5036106;28;20037;-72
2022/07/16 09:54:26;;;;;;;4.20;0.90;;;23.60;92.00;;;;;;5043351;28;20068;-68
2022/07/16 09:57:07;;;;;;;4.38;1.02;;;23.10;90.40;;;;;;5050939;28;20417;-70
2022/07/16 09:59:34;;;;;;;9.95;0.98;;;;;;;;;;5052062;28;20067;-70
2022/07/16 10:02:00;;;;;;;4.85;0.85;;;;;;;;;;5042416;28;20021;-70
2022/07/16 10:04:26;;;;;;;4.38;0.95;;;22.70;97.40;;;;;;5040860;28;20041;-70
2022/07/16 10:06:52;;;;;;;6.57;1.30;;;;;;;;;;5042598;28;20030;-70
2022/07/16 10:09:19;;;;;;;4.80;0.80;;;;;;;;;;5029422;28;20044;-71
2022/07/16 10:11:45;;;;;;;4.72;1.15;;;;;;;;;;5046377;28;20494;-71
2022/07/16 10:14:11;;;;;;;7.15;0.85;;;;;;;;;;5036663;28;20041;-71
2022/07/16 10:16:42;;;;;;;6.38;1.17;;;23.40;93.30;;;;;;5035095;28;20381;-70
2022/07/16 10:19:08;;;;;;;10.43;1.38;;;;;;;;;;5045410;28;20502;-71
2022/07/16 10:21:34;;;;;;;8.85;1.10;;;;;;;;;;5050624;28;20136;-69
2022/07/16 10:24:05;;;;;;;4.18;0.90;;;;;;;;;;5045003;28;20200;-71
2022/07/16 10:26:32;;;;;;;6.43;1.20;;;;;;;;;;5051583;28;20029;-69
2022/07/16 10:28:59;;;;;;;2.35;0.70;;;;;;;;;;5046802;28;20036;-72
2022/07/16 10:32:26;;;;;;;3.72;1.10;;;;;;;;;;5042666;28;20036;-69
2022/07/16 10:34:33;;;;;;;4.82;1.00;;;22.60;90.90;;;;;;5043543;28;20044;-68
2022/07/16 10:36:59;;;;;;;8.75;1.13;;;;;;;;;;5055238;28;20036;-68
2022/07/16 10:39:26;;;;;;;5.82;0.90;;;;;;;;;;5041774;28;20091;-68
2022/07/16 10:41:52;;;;;;;6.97;1.02;;;;;;;;;;5048550;28;20036;-68
2022/07/16 10:44:19;;;;;;;4.60;0.80;;;;;;;;;;5049133;28;20029;-68
2022/07/16 10:46:52;;;;;;;3.95;0.80;;;;;;;;;;5045583;28;20048;-67
2022/07/16 10:49:18;;;;;;;3.10;0.60;;;23.50;97.40;;;;;;5045137;28;20033;-68
2022/07/16 10:51:57;;;;;;;4.90;0.88;;;;;;;;;;5039299;28;20078;-68
2022/07/16 10:54:35;;;;;;;4.00;1.15;;;24.60;89.80;;;;;;5044887;28;20040;-68
2022/07/16 10:57:16;;;;;;;5.93;0.75;;;24.50;88.20;;;;;;5012438;28;20167;-71
2022/07/16 10:59:46;;;;;;;6.20;0.98;;;;;;;;;;5025827;28;20029;-71
2022/07/16 11:02:14;;;;;;;5.68;0.90;;;;;;;;;;5049817;28;20029;-71
2022/07/16 11:04:44;;;;;;;1.85;0.68;;;;;;;;;;5050259;28;20518;-72
2022/07/16 11:07:12;;;;;;;3.17;0.90;;;;;;;;;;5048523;28;20037;-72
2022/07/16 11:09:39;;;;;;;6.45;2.53;;;;;;;;;;5025961;28;20042;-72
2022/07/16 11:12:07;;;;;;;8.10;1.63;;;;;;;;;;5033118;28;20033;-76
2022/07/16 11:14:33;;;;;;;5.25;1.05;;;;;;;;;;5029251;28;20465;-74
2022/07/16 11:16:59;;;;;;;6.97;1.17;;;;;;;;;;5023702;28;20563;-73
2022/07/16 11:19:26;;;;;;;2.92;0.60;;;;;;;;;;5045263;28;20370;-70
2022/07/16 11:21:52;;;;;;;4.30;1.25;;;;;;;;;;5047573;28;20025;-71
2022/07/16 11:24:18;;;;;;;8.85;3.92;;;;;;;;;;5050259;28;20045;-69
2022/07/16 11:26:43;;;;;;;4.85;2.53;;;23.60;95.30;;;;;;5042539;28;20086;-69
2022/07/16 11:29:10;;;;;;;6.60;0.90;;;;;;;;;;5049358;28;20041;-68
2022/07/16 11:31:37;;;;;;;2.72;0.80;;;;;;;;;;5043869;28;20362;-70
2022/07/16 11:34:04;;;;;;;5.40;0.80;;;23.90;88.50;;;;;;5049503;28;20059;-70
2022/07/16 11:36:50;;;;;;;4.82;0.80;;;;;;;;;;5040682;28;20467;-70
2022/07/16 11:39:21;;;;;;;6.90;0.77;;;;;;;;;;5032611;28;20048;-69
2022/07/16 11:41:52;;;;;;;4.78;0.80;;;23.30;89.90;;;;;;5036022;28;20029;-70
2022/07/16 11:44:18;;;;;;;5.35;0.95;;;;;;;;;;5049246;28;20029;-70
2022/07/16 11:46:53;;;;;;;5.13;1.23;;;23.80;85.30;;;;;;5020593;28;20330;-70
2022/07/16 11:49:32;;;;;;;5.75;1.00;;;;;;;;;;5038007;28;20033;-71
2022/07/16 11:52:05;;;;;;;3.42;1.10;;;23.50;90.30;;;;;;5046061;28;20459;-70
2022/07/16 11:54:35;;;;;;;2.80;0.70;;;;;;;;;;5049430;28;20033;-69
2022/07/16 11:57:00;;;;;;;6.70;0.90;;;23.00;90.30;;;;;;5036525;28;20045;-70
2022/07/16 11:59:27;;;;;;;9.52;1.63;;;;;;;;;;5046610;28;20272;-70
2022/07/16 12:02:12;;;;;;;6.53;1.20;;;22.90;91.70;;;;;;5048202;28;20029;-70
2022/07/16 12:04:38;;;;;;;5.45;1.20;;;23.00;96.60;;;;;;5027570;28;20126;-71
2022/07/16 12:07:09;;;;;;;6.45;1.13;;;;;;;;;;5048897;28;20032;-70
2022/07/16 12:09:40;;;;;;;6.18;1.00;;;23.00;91.70;;;;;;5043054;28;20119;-69
2022/07/16 12:12:08;;;;;;;12.27;1.15;;;;;;;;;;5044831;28;20380;-70
2022/07/16 12:14:44;;;;;;;6.05;1.48;;;22.30;90.20;;;;;;5047105;28;20037;-70
2022/07/16 12:17:24;;;;;;;7.57;1.02;;;;;;;;;;5051751;28;20044;-70
2022/07/16 12:20:04;;;;;;;5.40;0.80;;;;;;;;;;5034013;28;20048;-70
2022/07/16 12:23:03;;;;;;;5.35;0.93;;;;;;;;;;5047724;28;20021;-69
2022/07/16 12:25:32;;;;;;;5.90;1.10;;;;;;;;;;5000069;28;20057;-69
2022/07/16 12:28:05;;;;;;;8.07;1.35;;;;;;;;;;5043207;28;20190;-69
2022/07/16 12:30:31;;;;;;;8.32;1.33;;;;;;;;;;5043237;28;20030;-69
2022/07/16 12:32:59;;;;;;;5.88;1.77;;;;;;;;;;5047541;28;20033;-69
2022/07/16 12:35:54;;;;;;;7.68;2.72;;;;;;;;;;5046745;28;20052;-70
2022/07/16 12:38:39;;;;;;;4.30;0.98;;;;;;;;;;4945019;28;20047;-70
2022/07/16 12:41:08;;;;;;;4.47;1.08;;;;;;;;;;5047247;28;20039;-70
2022/07/16 12:43:34;;;;;;;4.35;1.00;;;22.80;94.80;;;;;;5049818;28;20021;-70
2022/07/16 12:46:00;;;;;;;8.23;0.82;;;;;;;;;;5049352;28;20028;-70
2022/07/16 12:48:26;;;;;;;4.53;0.95;;;;;;;;;;5045790;28;20084;-70
2022/07/16 12:50:53;;;;;;;5.38;0.85;;;;;;;;;;5045304;28;20037;-70
2022/07/16 12:53:18;;;;;;;5.20;0.85;;;22.40;92.10;;;;;;5050696;28;20035;-70
2022/07/16 13:01:13;;;;;;;4.65;1.20;;;;;;;;;;5047633;28;20138;-70
2022/07/16 13:03:40;;;;;;;5.80;0.98;;;;;;;;;;5030337;28;20064;-70
2022/07/16 13:06:06;;;;;;;6.35;0.90;;;;;;;;;;5050081;28;20032;-70
2022/07/16 13:08:32;;;;;;;8.13;2.03;;;;;;;;;;5050968;28;20464;-70
2022/07/16 13:10:58;;;;;;;3.33;1.05;;;22.30;97.40;;;;;;5039387;28;20033;-70
2022/07/16 13:13:24;;;;;;;4.45;1.05;;;;;;;;;;5034721;28;20037;-70
2022/07/16 13:15:50;;;;;;;5.22;1.20;;;22.80;94.70;;;;;;5019003;28;20041;-70
2022/07/16 13:18:16;;;;;;;6.35;0.95;;;;;;;;;;5044870;28;20060;-70
2022/07/16 13:20:42;;;;;;;4.95;0.70;;;;;;;;;;5028550;28;20048;-70
2022/07/16 13:23:08;;;;;;;3.28;0.77;;;;;;;;;;5039349;28;20053;-70
2022/07/16 13:25:34;;;;;;;5.20;1.10;;;;;;;;;;5030637;28;20061;-70
2022/07/16 13:28:00;;;;;;;8.02;1.08;;;;;;;;;;5046019;28;20029;-70
2022/07/16 13:30:25;;;;;;;5.60;0.75;;;22.60;96.90;;;;;;5052944;28;20087;-70
2022/07/16 13:32:51;;;;;;;4.68;0.93;;;;;;;;;;5052117;28;20041;-70
2022/07/16 13:35:18;;;;;;;3.78;0.60;;;;;;;;;;5039558;28;20037;-70
2022/07/16 13:37:43;;;;;;;4.57;1.20;;;23.00;94.00;;;;;;5055104;28;20044;-70
2022/07/16 13:40:10;;;;;;;3.45;0.68;;;;;;;;;;5054157;28;20366;-70
2022/07/16 13:42:36;;;;;;;3.33;0.75;;;;;;;;;;5052058;28;20056;-70
2022/07/16 13:45:02;;;;;;;5.05;1.00;;;;;;;;;;5052274;28;20412;-70
2022/07/16 13:47:28;;;;;;;5.82;0.60;;;;;;;;;;5048716;28;20036;-70
2022/07/16 13:49:54;;;;;;;6.25;0.80;;;;;;;;;;5053526;28;20032;-70
2022/07/16 13:52:19;;;;;;;2.90;0.77;;;;;;;;;;5051477;28;20063;-70
2022/07/16 13:54:45;;;;;;;6.60;0.65;;;;;;;;;;5040455;28;20045;-70
2022/07/16 13:59:56;;;;;;;2.60;0.65;;;;;;;;;;5038339;28;20037;-70
2022/07/16 14:02:22;;;;;;;3.03;0.55;;;;;;;;;;5053189;28;20172;-70
2022/07/16 14:04:49;;;;;;;4.03;0.73;;;;;;;;;;5046907;28;20037;-70
2022/07/16 14:07:16;;;;;;;3.95;0.93;;;;;;;;;;5050479;28;20067;-70
2022/07/16 14:09:42;;;;;;;4.65;1.02;;;;;;;;;;5051599;28;20024;-70
2022/07/16 14:12:08;;;;;;;5.45;0.98;;;;;;;;;;5052939;28;20033;-70
2022/07/16 14:14:33;;;;;;;4.03;1.02;;;23.30;93.40;;;;;;5052716;28;20032;-70
2022/07/16 14:16:59;;;;;;;4.78;1.30;;;;;;;;;;5048790;28;20613;-70
2022/07/16 14:19:25;;;;;;;3.70;0.80;;;;;;;;;;5042443;28;20036;-72
2022/07/16 14:21:51;;;;;;;5.95;1.20;;;;;;;;;;5045836;28;20030;-71
2022/07/16 14:24:17;;;;;;;4.13;0.88;;;;;;;;;;5045917;28;20057;-70
2022/07/16 14:26:43;;;;;;;4.15;0.82;;;;;;;;;;5048882;28;20033;-70
2022/07/16 14:29:10;;;;;;;3.75;0.88;;;;;;;;;;5034660;28;20051;-71
2022/07/16 14:31:36;;;;;;;8.40;0.88;;;;;;;;;;5050622;28;20523;-71
2022/07/16 14:34:02;;;;;;;4.60;0.90;;;;;;;;;;5052603;28;20099;-71
2022/07/16 14:36:28;;;;;;;3.28;0.60;;;;;;;;;;5032447;28;20049;-70